sensor_id;sensor_type;location;lat;lon;timestamp;temperature;humidity
68215;DHT22;55036;52.138;5.236;2023-05-10T00:00:46;15.10;91.60
68215;DHT22;55036;52.138;5.236;2023-05-10T00:03:13;15.10;91.50
68215;DHT22;55036;52.138;5.236;2023-05-10T00:05:39;15.10;91.40
68215;DHT22;55036;52.138;5.236;2023-05-10T00:08:06;15.10;91.50
68215;DHT22;55036;52.138;5.236;2023-05-10T00:10:33;15.00;91.40
68215;DHT22;55036;52.138;5.236;2023-05-10T00:13:00;15.00;91.40
68215;DHT22;55036;52.138;5.236;2023-05-10T00:46:37;14.90;91.60
68215;DHT22;55036;52.138;5.236;2023-05-10T00:49:04;14.90;91.40
68215;DHT22;55036;52.138;5.236;2023-05-10T00:51:32;14.90;91.70
68215;DHT22;55036;52.138;5.236;2023-05-10T00:53:59;14.80;91.60
68215;DHT22;55036;52.138;5.236;2023-05-10T00:56:26;14.90;91.70
68215;DHT22;55036;52.138;5.236;2023-05-10T00:58:53;14.80;91.60
68215;DHT22;55036;52.138;5.236;2023-05-10T01:01:20;14.80;91.70
68215;DHT22;55036;52.138;5.236;2023-05-10T01:03:46;14.90;91.70
68215;DHT22;55036;52.138;5.236;2023-05-10T01:06:13;14.90;91.80
68215;DHT22;55036;52.138;5.236;2023-05-10T01:08:40;14.90;91.90
68215;DHT22;55036;52.138;5.236;2023-05-10T01:11:07;14.90;91.80
68215;DHT22;55036;52.138;5.236;2023-05-10T01:13:36;14.90;91.80
68215;DHT22;55036;52.138;5.236;2023-05-10T01:16:04;14.90;91.80
68215;DHT22;55036;52.138;5.236;2023-05-10T01:18:42;14.90;91.80
68215;DHT22;55036;52.138;5.236;2023-05-10T01:24:58;14.90;91.80
68215;DHT22;55036;52.138;5.236;2023-05-10T01:30:35;14.80;92.20
68215;DHT22;55036;52.138;5.236;2023-05-10T01:33:24;14.90;92.10
68215;DHT22;55036;52.138;5.236;2023-05-10T01:36:05;14.90;92.10
68215;DHT22;55036;52.138;5.236;2023-05-10T01:41:28;14.80;92.50
68215;DHT22;55036;52.138;5.236;2023-05-10T01:46:39;14.90;92.40
68215;DHT22;55036;52.138;5.236;2023-05-10T01:49:08;14.90;92.50
68215;DHT22;55036;52.138;5.236;2023-05-10T01:51:50;15.00;92.30
68215;DHT22;55036;52.138;5.236;2023-05-10T01:54:20;14.90;92.40
68215;DHT22;55036;52.138;5.236;2023-05-10T01:56:52;14.90;92.40
68215;DHT22;55036;52.138;5.236;2023-05-10T01:59:21;15.00;92.40
68215;DHT22;55036;52.138;5.236;2023-05-10T02:01:50;14.90;92.40
68215;DHT22;55036;52.138;5.236;2023-05-10T02:04:19;14.90;92.30
68215;DHT22;55036;52.138;5.236;2023-05-10T02:06:48;14.90;92.60
68215;DHT22;55036;52.138;5.236;2023-05-10T02:09:16;14.90;92.50
68215;DHT22;55036;52.138;5.236;2023-05-10T02:11:44;14.90;92.50
68215;DHT22;55036;52.138;5.236;2023-05-10T02:14:11;14.90;92.60
68215;DHT22;55036;52.138;5.236;2023-05-10T02:16:39;15.00;92.50
68215;DHT22;55036;52.138;5.236;2023-05-10T02:19:07;15.00;92.50
68215;DHT22;55036;52.138;5.236;2023-05-10T02:21:35;15.00;92.50
68215;DHT22;55036;52.138;5.236;2023-05-10T02:24:03;14.90;92.50
68215;DHT22;55036;52.138;5.236;2023-05-10T02:26:32;14.90;92.60
68215;DHT22;55036;52.138;5.236;2023-05-10T02:29:02;14.90;92.60
68215;DHT22;55036;52.138;5.236;2023-05-10T02:31:33;14.70;92.80
68215;DHT22;55036;52.138;5.236;2023-05-10T02:34:02;14.70;92.40
68215;DHT22;55036;52.138;5.236;2023-05-10T02:36:29;14.70;92.70
68215;DHT22;55036;52.138;5.236;2023-05-10T02:38:57;14.60;92.80
68215;DHT22;55036;52.138;5.236;2023-05-10T02:41:25;14.50;92.90
68215;DHT22;55036;52.138;5.236;2023-05-10T02:43:55;14.50;92.90
68215;DHT22;55036;52.138;5.236;2023-05-10T02:46:23;14.50;92.80
68215;DHT22;55036;52.138;5.236;2023-05-10T02:48:50;14.60;92.70
68215;DHT22;55036;52.138;5.236;2023-05-10T02:51:18;14.60;92.70
68215;DHT22;55036;52.138;5.236;2023-05-10T02:53:46;14.50;92.90
68215;DHT22;55036;52.138;5.236;2023-05-10T02:56:23;14.50;92.90
68215;DHT22;55036;52.138;5.236;2023-05-10T02:58:52;14.60;92.80
68215;DHT22;55036;52.138;5.236;2023-05-10T03:01:18;14.50;92.90
68215;DHT22;55036;52.138;5.236;2023-05-10T03:03:45;14.50;93.00
68215;DHT22;55036;52.138;5.236;2023-05-10T03:06:12;14.50;93.30
68215;DHT22;55036;52.138;5.236;2023-05-10T03:08:38;14.50;93.10
68215;DHT22;55036;52.138;5.236;2023-05-10T03:11:28;14.60;93.10
68215;DHT22;55036;52.138;5.236;2023-05-10T03:19:43;14.60;93.10
68215;DHT22;55036;52.138;5.236;2023-05-10T03:22:16;14.60;93.50
68215;DHT22;55036;52.138;5.236;2023-05-10T03:24:46;14.60;93.20
68215;DHT22;55036;52.138;5.236;2023-05-10T03:27:14;14.60;93.10
68215;DHT22;55036;52.138;5.236;2023-05-10T03:29:42;14.60;93.10
68215;DHT22;55036;52.138;5.236;2023-05-10T03:32:10;14.60;93.00
68215;DHT22;55036;52.138;5.236;2023-05-10T03:34:41;14.70;93.20
68215;DHT22;55036;52.138;5.236;2023-05-10T03:37:09;14.60;93.20
68215;DHT22;55036;52.138;5.236;2023-05-10T03:39:36;14.50;93.20
68215;DHT22;55036;52.138;5.236;2023-05-10T03:42:02;14.50;93.40
68215;DHT22;55036;52.138;5.236;2023-05-10T03:44:29;14.50;93.40
68215;DHT22;55036;52.138;5.236;2023-05-10T03:46:56;14.50;93.30
68215;DHT22;55036;52.138;5.236;2023-05-10T03:49:23;14.50;93.70
68215;DHT22;55036;52.138;5.236;2023-05-10T03:51:50;14.50;93.50
68215;DHT22;55036;52.138;5.236;2023-05-10T03:54:16;14.50;93.50
68215;DHT22;55036;52.138;5.236;2023-05-10T03:56:43;14.50;93.60
68215;DHT22;55036;52.138;5.236;2023-05-10T03:59:10;14.50;93.60
68215;DHT22;55036;52.138;5.236;2023-05-10T04:01:36;14.50;93.60
68215;DHT22;55036;52.138;5.236;2023-05-10T04:04:03;14.60;93.60
68215;DHT22;55036;52.138;5.236;2023-05-10T04:06:30;14.50;93.50
68215;DHT22;55036;52.138;5.236;2023-05-10T04:08:57;14.50;93.50
68215;DHT22;55036;52.138;5.236;2023-05-10T04:11:26;14.60;93.20
68215;DHT22;55036;52.138;5.236;2023-05-10T04:13:52;14.60;93.50
68215;DHT22;55036;52.138;5.236;2023-05-10T04:16:19;14.60;93.40
68215;DHT22;55036;52.138;5.236;2023-05-10T04:18:46;14.60;93.30
68215;DHT22;55036;52.138;5.236;2023-05-10T04:21:13;14.60;93.20
68215;DHT22;55036;52.138;5.236;2023-05-10T04:23:40;14.60;93.30
68215;DHT22;55036;52.138;5.236;2023-05-10T04:26:07;14.70;93.30
68215;DHT22;55036;52.138;5.236;2023-05-10T04:28:34;14.70;93.20
68215;DHT22;55036;52.138;5.236;2023-05-10T04:31:06;14.70;93.10
68215;DHT22;55036;52.138;5.236;2023-05-10T04:33:34;14.70;93.10
68215;DHT22;55036;52.138;5.236;2023-05-10T04:36:01;14.70;93.20
68215;DHT22;55036;52.138;5.236;2023-05-10T04:38:28;14.70;93.20
68215;DHT22;55036;52.138;5.236;2023-05-10T04:41:04;14.70;93.30
68215;DHT22;55036;52.138;5.236;2023-05-10T04:43:31;14.60;93.20
68215;DHT22;55036;52.138;5.236;2023-05-10T04:45:57;14.60;93.40
68215;DHT22;55036;52.138;5.236;2023-05-10T04:48:24;14.60;93.30
68215;DHT22;55036;52.138;5.236;2023-05-10T04:50:51;14.60;93.40
68215;DHT22;55036;52.138;5.236;2023-05-10T04:53:18;14.60;93.30
68215;DHT22;55036;52.138;5.236;2023-05-10T04:55:44;14.70;93.40
68215;DHT22;55036;52.138;5.236;2023-05-10T04:58:11;14.70;93.40
68215;DHT22;55036;52.138;5.236;2023-05-10T05:00:38;14.60;93.40
68215;DHT22;55036;52.138;5.236;2023-05-10T05:03:05;14.60;93.40
68215;DHT22;55036;52.138;5.236;2023-05-10T05:05:32;14.60;93.40
68215;DHT22;55036;52.138;5.236;2023-05-10T05:07:59;14.60;93.40
68215;DHT22;55036;52.138;5.236;2023-05-10T05:10:26;14.70;93.50
68215;DHT22;55036;52.138;5.236;2023-05-10T05:12:52;14.80;93.40
68215;DHT22;55036;52.138;5.236;2023-05-10T05:15:19;14.80;93.40
68215;DHT22;55036;52.138;5.236;2023-05-10T05:17:46;14.90;93.30
68215;DHT22;55036;52.138;5.236;2023-05-10T05:20:13;14.90;93.20
68215;DHT22;55036;52.138;5.236;2023-05-10T05:22:39;14.90;93.50
68215;DHT22;55036;52.138;5.236;2023-05-10T05:25:07;14.80;93.10
68215;DHT22;55036;52.138;5.236;2023-05-10T05:27:33;14.80;93.10
68215;DHT22;55036;52.138;5.236;2023-05-10T05:30:00;14.80;93.10
68215;DHT22;55036;52.138;5.236;2023-05-10T05:32:27;14.80;93.00
68215;DHT22;55036;52.138;5.236;2023-05-10T05:34:53;14.80;93.00
68215;DHT22;55036;52.138;5.236;2023-05-10T05:37:21;14.80;92.90
68215;DHT22;55036;52.138;5.236;2023-05-10T05:39:50;14.80;92.90
68215;DHT22;55036;52.138;5.236;2023-05-10T05:42:17;14.80;92.90
68215;DHT22;55036;52.138;5.236;2023-05-10T05:44:45;14.80;92.90
68215;DHT22;55036;52.138;5.236;2023-05-10T05:47:12;14.80;92.90
68215;DHT22;55036;52.138;5.236;2023-05-10T05:49:38;14.80;92.80
68215;DHT22;55036;52.138;5.236;2023-05-10T05:52:06;14.70;92.70
68215;DHT22;55036;52.138;5.236;2023-05-10T05:54:32;14.60;92.90
68215;DHT22;55036;52.138;5.236;2023-05-10T05:57:00;14.60;92.80
68215;DHT22;55036;52.138;5.236;2023-05-10T05:59:27;14.60;92.80
68215;DHT22;55036;52.138;5.236;2023-05-10T06:01:54;14.60;92.80
68215;DHT22;55036;52.138;5.236;2023-05-10T06:04:21;14.60;93.00
68215;DHT22;55036;52.138;5.236;2023-05-10T06:06:47;14.60;92.90
68215;DHT22;55036;52.138;5.236;2023-05-10T06:09:14;14.70;93.00
68215;DHT22;55036;52.138;5.236;2023-05-10T06:11:41;14.70;92.90
68215;DHT22;55036;52.138;5.236;2023-05-10T06:14:08;14.70;92.70
68215;DHT22;55036;52.138;5.236;2023-05-10T06:16:34;14.70;92.80
68215;DHT22;55036;52.138;5.236;2023-05-10T06:19:02;14.70;92.60
68215;DHT22;55036;52.138;5.236;2023-05-10T06:21:29;14.80;92.90
68215;DHT22;55036;52.138;5.236;2023-05-10T06:23:56;14.80;93.00
68215;DHT22;55036;52.138;5.236;2023-05-10T06:26:23;14.90;92.80
68215;DHT22;55036;52.138;5.236;2023-05-10T06:28:50;14.90;92.50
68215;DHT22;55036;52.138;5.236;2023-05-10T06:31:16;14.90;92.80
68215;DHT22;55036;52.138;5.236;2023-05-10T06:33:43;14.90;92.60
68215;DHT22;55036;52.138;5.236;2023-05-10T06:36:10;14.80;92.30
68215;DHT22;55036;52.138;5.236;2023-05-10T06:38:37;14.80;92.50
68215;DHT22;55036;52.138;5.236;2023-05-10T06:41:03;14.80;92.50
68215;DHT22;55036;52.138;5.236;2023-05-10T06:43:30;14.90;92.40
68215;DHT22;55036;52.138;5.236;2023-05-10T06:45:57;14.90;92.40
68215;DHT22;55036;52.138;5.236;2023-05-10T06:48:23;15.00;92.40
68215;DHT22;55036;52.138;5.236;2023-05-10T06:50:50;15.00;92.10
68215;DHT22;55036;52.138;5.236;2023-05-10T06:53:17;15.00;92.10
68215;DHT22;55036;52.138;5.236;2023-05-10T06:55:44;15.00;91.90
68215;DHT22;55036;52.138;5.236;2023-05-10T06:58:10;14.90;91.90
68215;DHT22;55036;52.138;5.236;2023-05-10T07:00:37;14.90;91.90
68215;DHT22;55036;52.138;5.236;2023-05-10T07:03:07;14.90;92.00
68215;DHT22;55036;52.138;5.236;2023-05-10T07:05:33;14.90;91.90
68215;DHT22;55036;52.138;5.236;2023-05-10T07:08:01;15.00;92.00
68215;DHT22;55036;52.138;5.236;2023-05-10T07:10:28;15.00;92.00
68215;DHT22;55036;52.138;5.236;2023-05-10T07:12:54;15.10;91.80
68215;DHT22;55036;52.138;5.236;2023-05-10T07:15:21;15.20;91.80
68215;DHT22;55036;52.138;5.236;2023-05-10T07:17:48;15.20;91.90
68215;DHT22;55036;52.138;5.236;2023-05-10T07:20:15;15.30;91.90
68215;DHT22;55036;52.138;5.236;2023-05-10T07:22:41;15.30;91.60
68215;DHT22;55036;52.138;5.236;2023-05-10T07:25:08;15.30;91.60
68215;DHT22;55036;52.138;5.236;2023-05-10T07:27:35;15.30;91.50
68215;DHT22;55036;52.138;5.236;2023-05-10T07:30:02;15.30;91.00
68215;DHT22;55036;52.138;5.236;2023-05-10T07:32:29;15.20;91.20
68215;DHT22;55036;52.138;5.236;2023-05-10T07:34:56;15.20;91.20
68215;DHT22;55036;52.138;5.236;2023-05-10T07:37:22;15.20;91.30
68215;DHT22;55036;52.138;5.236;2023-05-10T07:39:49;15.20;90.80
68215;DHT22;55036;52.138;5.236;2023-05-10T07:42:16;15.20;91.30
68215;DHT22;55036;52.138;5.236;2023-05-10T07:44:42;15.20;91.30
68215;DHT22;55036;52.138;5.236;2023-05-10T07:47:09;15.20;91.20
68215;DHT22;55036;52.138;5.236;2023-05-10T07:49:36;15.20;91.30
68215;DHT22;55036;52.138;5.236;2023-05-10T07:52:03;15.30;91.70
68215;DHT22;55036;52.138;5.236;2023-05-10T07:54:31;15.30;91.20
68215;DHT22;55036;52.138;5.236;2023-05-10T07:56:57;15.40;91.30
68215;DHT22;55036;52.138;5.236;2023-05-10T07:59:24;15.50;91.30
68215;DHT22;55036;52.138;5.236;2023-05-10T08:01:51;15.50;91.00
68215;DHT22;55036;52.138;5.236;2023-05-10T08:04:17;15.50;91.00
68215;DHT22;55036;52.138;5.236;2023-05-10T08:06:44;15.50;90.80
68215;DHT22;55036;52.138;5.236;2023-05-10T08:09:11;15.50;90.50
68215;DHT22;55036;52.138;5.236;2023-05-10T08:11:38;15.40;90.70
68215;DHT22;55036;52.138;5.236;2023-05-10T08:14:05;15.40;90.70
68215;DHT22;55036;52.138;5.236;2023-05-10T08:16:31;15.40;91.00
68215;DHT22;55036;52.138;5.236;2023-05-10T08:18:58;15.50;91.00
68215;DHT22;55036;52.138;5.236;2023-05-10T08:21:25;15.50;90.90
68215;DHT22;55036;52.138;5.236;2023-05-10T08:23:52;15.50;90.90
68215;DHT22;55036;52.138;5.236;2023-05-10T08:26:19;15.60;90.60
68215;DHT22;55036;52.138;5.236;2023-05-10T08:28:47;15.50;90.40
68215;DHT22;55036;52.138;5.236;2023-05-10T08:31:15;15.40;90.50
68215;DHT22;55036;52.138;5.236;2023-05-10T08:33:42;15.40;90.60
68215;DHT22;55036;52.138;5.236;2023-05-10T08:36:10;15.40;90.30
68215;DHT22;55036;52.138;5.236;2023-05-10T08:38:38;15.40;90.50
68215;DHT22;55036;52.138;5.236;2023-05-10T08:41:05;15.50;90.60
68215;DHT22;55036;52.138;5.236;2023-05-10T08:43:32;15.60;90.50
68215;DHT22;55036;52.138;5.236;2023-05-10T08:46:00;15.60;90.40
68215;DHT22;55036;52.138;5.236;2023-05-10T08:48:30;15.70;90.50
68215;DHT22;55036;52.138;5.236;2023-05-10T08:50:58;15.80;90.70
68215;DHT22;55036;52.138;5.236;2023-05-10T08:53:27;15.90;90.50
68215;DHT22;55036;52.138;5.236;2023-05-10T08:55:55;16.00;90.50
68215;DHT22;55036;52.138;5.236;2023-05-10T08:58:22;16.00;90.30
68215;DHT22;55036;52.138;5.236;2023-05-10T09:00:49;16.10;90.40
68215;DHT22;55036;52.138;5.236;2023-05-10T09:03:19;16.20;90.30
68215;DHT22;55036;52.138;5.236;2023-05-10T09:05:46;16.30;90.10
68215;DHT22;55036;52.138;5.236;2023-05-10T09:08:13;16.30;90.10
68215;DHT22;55036;52.138;5.236;2023-05-10T09:10:44;16.30;89.10
68215;DHT22;55036;52.138;5.236;2023-05-10T09:13:11;16.40;89.40
68215;DHT22;55036;52.138;5.236;2023-05-10T09:15:38;16.40;87.60
68215;DHT22;55036;52.138;5.236;2023-05-10T09:18:05;16.20;88.30
68215;DHT22;55036;52.138;5.236;2023-05-10T09:20:32;16.40;88.60
68215;DHT22;55036;52.138;5.236;2023-05-10T09:22:59;16.50;88.20
68215;DHT22;55036;52.138;5.236;2023-05-10T09:25:26;16.50;87.80
68215;DHT22;55036;52.138;5.236;2023-05-10T09:27:53;16.50;88.00
68215;DHT22;55036;52.138;5.236;2023-05-10T09:30:26;16.50;87.80
68215;DHT22;55036;52.138;5.236;2023-05-10T09:32:54;16.50;87.60
68215;DHT22;55036;52.138;5.236;2023-05-10T09:35:24;16.50;86.60
68215;DHT22;55036;52.138;5.236;2023-05-10T09:37:56;16.50;87.20
68215;DHT22;55036;52.138;5.236;2023-05-10T09:40:25;16.40;86.70
68215;DHT22;55036;52.138;5.236;2023-05-10T09:43:00;16.40;87.00
68215;DHT22;55036;52.138;5.236;2023-05-10T09:45:31;16.60;86.60
68215;DHT22;55036;52.138;5.236;2023-05-10T09:47:59;16.60;87.50
68215;DHT22;55036;52.138;5.236;2023-05-10T09:50:27;16.70;87.10
68215;DHT22;55036;52.138;5.236;2023-05-10T09:52:56;16.80;87.60
68215;DHT22;55036;52.138;5.236;2023-05-10T09:55:39;16.90;87.30
68215;DHT22;55036;52.138;5.236;2023-05-10T09:58:07;17.00;87.10
68215;DHT22;55036;52.138;5.236;2023-05-10T10:00:39;17.10;87.00
68215;DHT22;55036;52.138;5.236;2023-05-10T10:03:07;17.10;87.20
68215;DHT22;55036;52.138;5.236;2023-05-10T10:05:40;16.90;84.60
68215;DHT22;55036;52.138;5.236;2023-05-10T10:08:07;16.90;85.20
68215;DHT22;55036;52.138;5.236;2023-05-10T10:10:34;16.80;84.30
68215;DHT22;55036;52.138;5.236;2023-05-10T10:13:01;16.70;84.10
68215;DHT22;55036;52.138;5.236;2023-05-10T10:15:28;16.60;85.10
68215;DHT22;55036;52.138;5.236;2023-05-10T10:17:54;16.60;85.20
68215;DHT22;55036;52.138;5.236;2023-05-10T10:20:22;16.70;85.40
68215;DHT22;55036;52.138;5.236;2023-05-10T10:22:49;16.80;85.20
68215;DHT22;55036;52.138;5.236;2023-05-10T10:25:18;16.90;84.50
68215;DHT22;55036;52.138;5.236;2023-05-10T10:30:28;16.90;84.40
68215;DHT22;55036;52.138;5.236;2023-05-10T10:35:53;16.90;84.80
68215;DHT22;55036;52.138;5.236;2023-05-10T10:38:21;16.90;84.70
68215;DHT22;55036;52.138;5.236;2023-05-10T10:40:48;16.80;84.40
68215;DHT22;55036;52.138;5.236;2023-05-10T10:43:26;16.70;84.50
68215;DHT22;55036;52.138;5.236;2023-05-10T10:46:12;16.60;84.40
68215;DHT22;55036;52.138;5.236;2023-05-10T10:48:50;16.70;84.60
68215;DHT22;55036;52.138;5.236;2023-05-10T10:51:18;16.70;85.10
68215;DHT22;55036;52.138;5.236;2023-05-10T10:53:47;16.70;84.60
68215;DHT22;55036;52.138;5.236;2023-05-10T10:56:14;16.70;84.60
68215;DHT22;55036;52.138;5.236;2023-05-10T10:58:49;16.80;85.50
68215;DHT22;55036;52.138;5.236;2023-05-10T11:01:20;17.10;85.90
68215;DHT22;55036;52.138;5.236;2023-05-10T11:04:16;17.40;85.30
68215;DHT22;55036;52.138;5.236;2023-05-10T11:06:43;17.80;85.30
68215;DHT22;55036;52.138;5.236;2023-05-10T11:09:12;18.00;83.80
68215;DHT22;55036;52.138;5.236;2023-05-10T11:11:52;18.10;82.20
68215;DHT22;55036;52.138;5.236;2023-05-10T11:14:21;18.10;82.10
68215;DHT22;55036;52.138;5.236;2023-05-10T11:16:51;18.20;81.80
68215;DHT22;55036;52.138;5.236;2023-05-10T11:19:19;18.30;81.60
68215;DHT22;55036;52.138;5.236;2023-05-10T11:24:29;18.20;80.50
68215;DHT22;55036;52.138;5.236;2023-05-10T11:26:56;18.20;79.90
68215;DHT22;55036;52.138;5.236;2023-05-10T11:29:23;18.10;79.90
68215;DHT22;55036;52.138;5.236;2023-05-10T11:31:52;17.90;79.60
68215;DHT22;55036;52.138;5.236;2023-05-10T11:36:53;17.80;79.50
68215;DHT22;55036;52.138;5.236;2023-05-10T11:39:30;17.80;79.20
68215;DHT22;55036;52.138;5.236;2023-05-10T11:41:58;17.80;79.10
68215;DHT22;55036;52.138;5.236;2023-05-10T11:44:32;17.70;79.20
68215;DHT22;55036;52.138;5.236;2023-05-10T11:47:02;17.50;79.00
68215;DHT22;55036;52.138;5.236;2023-05-10T11:49:28;17.50;79.20
68215;DHT22;55036;52.138;5.236;2023-05-10T11:52:06;17.50;79.50
68215;DHT22;55036;52.138;5.236;2023-05-10T11:54:33;17.50;79.70
68215;DHT22;55036;52.138;5.236;2023-05-10T11:57:04;17.60;80.30
68215;DHT22;55036;52.138;5.236;2023-05-10T11:59:30;17.70;80.30
68215;DHT22;55036;52.138;5.236;2023-05-10T12:01:57;17.90;80.80
68215;DHT22;55036;52.138;5.236;2023-05-10T12:04:24;18.20;80.60
68215;DHT22;55036;52.138;5.236;2023-05-10T12:06:52;18.30;80.60
68215;DHT22;55036;52.138;5.236;2023-05-10T12:09:19;18.50;78.00
68215;DHT22;55036;52.138;5.236;2023-05-10T12:12:05;18.50;79.20
68215;DHT22;55036;52.138;5.236;2023-05-10T12:14:34;18.70;78.20
68215;DHT22;55036;52.138;5.236;2023-05-10T12:17:01;18.80;78.30
68215;DHT22;55036;52.138;5.236;2023-05-10T12:19:28;18.80;77.50
68215;DHT22;55036;52.138;5.236;2023-05-10T12:21:54;18.80;76.60
68215;DHT22;55036;52.138;5.236;2023-05-10T12:24:21;18.80;77.00
68215;DHT22;55036;52.138;5.236;2023-05-10T12:26:48;19.00;76.90
68215;DHT22;55036;52.138;5.236;2023-05-10T12:29:32;19.00;76.70
68215;DHT22;55036;52.138;5.236;2023-05-10T12:31:59;19.10;76.50
68215;DHT22;55036;52.138;5.236;2023-05-10T12:34:34;18.90;75.50
68215;DHT22;55036;52.138;5.236;2023-05-10T12:37:03;18.80;75.10
68215;DHT22;55036;52.138;5.236;2023-05-10T12:39:43;18.90;75.60
68215;DHT22;55036;52.138;5.236;2023-05-10T12:42:11;18.90;75.30
68215;DHT22;55036;52.138;5.236;2023-05-10T12:44:38;18.80;75.10
68215;DHT22;55036;52.138;5.236;2023-05-10T12:47:05;18.60;75.60
68215;DHT22;55036;52.138;5.236;2023-05-10T12:49:32;18.60;75.60
68215;DHT22;55036;52.138;5.236;2023-05-10T12:51:59;18.50;75.60
68215;DHT22;55036;52.138;5.236;2023-05-10T12:54:25;18.40;74.90
68215;DHT22;55036;52.138;5.236;2023-05-10T12:56:52;18.10;75.30
68215;DHT22;55036;52.138;5.236;2023-05-10T12:59:18;17.60;76.00
68215;DHT22;55036;52.138;5.236;2023-05-10T13:01:45;17.50;76.30
68215;DHT22;55036;52.138;5.236;2023-05-10T13:04:12;17.30;77.10
68215;DHT22;55036;52.138;5.236;2023-05-10T13:06:38;17.20;77.70
68215;DHT22;55036;52.138;5.236;2023-05-10T13:09:05;17.10;77.90
68215;DHT22;55036;52.138;5.236;2023-05-10T13:11:32;17.10;78.20
68215;DHT22;55036;52.138;5.236;2023-05-10T13:13:59;17.00;79.10
68215;DHT22;55036;52.138;5.236;2023-05-10T13:16:25;16.90;79.00
68215;DHT22;55036;52.138;5.236;2023-05-10T13:18:53;16.90;79.60
68215;DHT22;55036;52.138;5.236;2023-05-10T13:21:19;16.80;79.80
68215;DHT22;55036;52.138;5.236;2023-05-10T13:23:46;16.70;80.60
68215;DHT22;55036;52.138;5.236;2023-05-10T13:26:13;16.60;81.30
68215;DHT22;55036;52.138;5.236;2023-05-10T13:28:39;16.50;81.50
68215;DHT22;55036;52.138;5.236;2023-05-10T13:31:07;16.50;82.30
68215;DHT22;55036;52.138;5.236;2023-05-10T13:33:34;16.40;83.50
68215;DHT22;55036;52.138;5.236;2023-05-10T13:36:00;16.30;83.90
68215;DHT22;55036;52.138;5.236;2023-05-10T13:38:27;16.30;83.70
68215;DHT22;55036;52.138;5.236;2023-05-10T13:40:53;16.40;84.60
68215;DHT22;55036;52.138;5.236;2023-05-10T13:43:20;16.40;84.60
68215;DHT22;55036;52.138;5.236;2023-05-10T13:45:47;16.40;84.70
68215;DHT22;55036;52.138;5.236;2023-05-10T13:48:13;16.40;85.00
68215;DHT22;55036;52.138;5.236;2023-05-10T13:50:40;16.40;85.50
68215;DHT22;55036;52.138;5.236;2023-05-10T13:53:07;16.40;85.50
68215;DHT22;55036;52.138;5.236;2023-05-10T13:55:34;16.40;85.90
68215;DHT22;55036;52.138;5.236;2023-05-10T13:58:00;16.50;85.80
68215;DHT22;55036;52.138;5.236;2023-05-10T14:00:27;16.50;85.80
68215;DHT22;55036;52.138;5.236;2023-05-10T14:02:54;16.60;86.20
68215;DHT22;55036;52.138;5.236;2023-05-10T14:05:20;16.60;86.40
68215;DHT22;55036;52.138;5.236;2023-05-10T14:07:51;16.40;87.10
68215;DHT22;55036;52.138;5.236;2023-05-10T14:10:18;16.50;86.90
68215;DHT22;55036;52.138;5.236;2023-05-10T14:12:44;16.60;87.00
68215;DHT22;55036;52.138;5.236;2023-05-10T14:15:11;16.60;86.80
68215;DHT22;55036;52.138;5.236;2023-05-10T14:17:38;16.60;86.80
68215;DHT22;55036;52.138;5.236;2023-05-10T14:20:05;16.60;87.30
68215;DHT22;55036;52.138;5.236;2023-05-10T14:22:32;16.70;87.00
68215;DHT22;55036;52.138;5.236;2023-05-10T14:24:59;16.70;86.90
68215;DHT22;55036;52.138;5.236;2023-05-10T14:27:26;16.70;87.00
68215;DHT22;55036;52.138;5.236;2023-05-10T14:29:53;16.80;87.10
68215;DHT22;55036;52.138;5.236;2023-05-10T14:32:20;16.90;87.10
68215;DHT22;55036;52.138;5.236;2023-05-10T14:34:47;16.90;87.30
68215;DHT22;55036;52.138;5.236;2023-05-10T14:37:14;16.90;87.30
68215;DHT22;55036;52.138;5.236;2023-05-10T14:39:41;16.90;87.20
68215;DHT22;55036;52.138;5.236;2023-05-10T14:42:08;16.90;87.30
68215;DHT22;55036;52.138;5.236;2023-05-10T14:44:35;17.00;87.80
68215;DHT22;55036;52.138;5.236;2023-05-10T14:47:02;16.90;87.80
68215;DHT22;55036;52.138;5.236;2023-05-10T14:49:28;17.00;87.10
68215;DHT22;55036;52.138;5.236;2023-05-10T14:51:55;17.00;87.60
68215;DHT22;55036;52.138;5.236;2023-05-10T14:54:22;17.10;87.60
68215;DHT22;55036;52.138;5.236;2023-05-10T14:56:48;17.20;87.50
68215;DHT22;55036;52.138;5.236;2023-05-10T14:59:16;17.20;87.60
68215;DHT22;55036;52.138;5.236;2023-05-10T15:01:43;17.30;87.40
68215;DHT22;55036;52.138;5.236;2023-05-10T15:04:11;17.30;87.40
68215;DHT22;55036;52.138;5.236;2023-05-10T15:06:39;17.40;87.80
68215;DHT22;55036;52.138;5.236;2023-05-10T15:09:06;17.50;88.30
68215;DHT22;55036;52.138;5.236;2023-05-10T15:11:33;17.50;85.70
68215;DHT22;55036;52.138;5.236;2023-05-10T15:14:00;17.60;87.10
68215;DHT22;55036;52.138;5.236;2023-05-10T15:16:28;17.60;87.40
68215;DHT22;55036;52.138;5.236;2023-05-10T15:18:54;17.70;86.70
68215;DHT22;55036;52.138;5.236;2023-05-10T15:21:21;17.80;87.20
68215;DHT22;55036;52.138;5.236;2023-05-10T15:23:48;17.80;86.90
68215;DHT22;55036;52.138;5.236;2023-05-10T15:26:15;17.90;86.70
68215;DHT22;55036;52.138;5.236;2023-05-10T15:28:42;18.00;86.30
68215;DHT22;55036;52.138;5.236;2023-05-10T15:31:09;18.10;86.30
68215;DHT22;55036;52.138;5.236;2023-05-10T15:33:37;18.00;86.40
68215;DHT22;55036;52.138;5.236;2023-05-10T15:36:04;18.00;86.00
68215;DHT22;55036;52.138;5.236;2023-05-10T15:38:31;17.90;85.80
68215;DHT22;55036;52.138;5.236;2023-05-10T15:40:57;17.90;85.60
68215;DHT22;55036;52.138;5.236;2023-05-10T15:43:24;17.90;85.50
68215;DHT22;55036;52.138;5.236;2023-05-10T15:45:51;17.90;85.10
68215;DHT22;55036;52.138;5.236;2023-05-10T15:48:17;17.80;85.40
68215;DHT22;55036;52.138;5.236;2023-05-10T15:50:44;17.90;85.60
68215;DHT22;55036;52.138;5.236;2023-05-10T15:53:11;17.80;85.60
68215;DHT22;55036;52.138;5.236;2023-05-10T15:55:37;17.90;85.50
68215;DHT22;55036;52.138;5.236;2023-05-10T15:58:04;17.80;85.50
68215;DHT22;55036;52.138;5.236;2023-05-10T16:00:31;17.80;85.30
68215;DHT22;55036;52.138;5.236;2023-05-10T16:02:57;17.80;85.10
68215;DHT22;55036;52.138;5.236;2023-05-10T16:05:24;17.60;84.80
68215;DHT22;55036;52.138;5.236;2023-05-10T16:07:54;17.60;85.10
68215;DHT22;55036;52.138;5.236;2023-05-10T16:10:21;17.60;84.70
68215;DHT22;55036;52.138;5.236;2023-05-10T16:12:48;17.60;84.50
68215;DHT22;55036;52.138;5.236;2023-05-10T16:15:14;17.50;84.80
68215;DHT22;55036;52.138;5.236;2023-05-10T16:17:41;17.50;84.50
68215;DHT22;55036;52.138;5.236;2023-05-10T16:20:09;17.40;84.20
68215;DHT22;55036;52.138;5.236;2023-05-10T16:22:35;17.30;84.70
68215;DHT22;55036;52.138;5.236;2023-05-10T16:25:02;17.30;85.00
68215;DHT22;55036;52.138;5.236;2023-05-10T16:27:29;17.20;85.70
68215;DHT22;55036;52.138;5.236;2023-05-10T16:29:58;17.20;85.50
68215;DHT22;55036;52.138;5.236;2023-05-10T16:32:25;17.20;86.10
68215;DHT22;55036;52.138;5.236;2023-05-10T16:34:52;17.20;86.10